Latest Weather Observations for Julia Creek

IDQ60801

Issued at 4:05 pm EST Wednesday 26 November 2014 (issued every 30 minutes, with the page automatically refreshed every 10 minutes)

About weather observations | Map of weather stations | Latest weather observations for QLD | Other Formats
Station Details ID: 029058 Name: JULIA CREEK AIRPORT Lat: -20.67 Lon: 141.72 Height: 122.5 m
Data from the previous 72 hours. | See also: Recent months at Julia Creek
Date/Time
EST
Temp
°C
App
Temp
°C
Dew
Point
Rel
Hum
%
Delta-T
°C
Wind Press
QNH
hPa
Press
MSL
hPa
Rain
since 9 am
mm
Dir
 
Spd
km/h
Gust
km/h
Spd
kts
Gust
kts
26/04:00pm 39.4 35.4 8.9 16 17.8 SE 20 35 11 19 1006.8 1005.9 -
26/03:30pm 39.6 37.9 10.0 17 17.6 SE 9 22 5 12 1006.9 1006.0 -
26/03:00pm 39.6 37.4 10.8 18 17.3 ESE 13 26 7 14 1007.3 1006.4 -
26/02:30pm 39.3 37.4 10.6 18 17.1 ENE 11 22 6 12 1007.6 1006.7 -
26/02:00pm 38.4 36.7 9.9 18 16.8 NE 9 24 5 13 1007.9 1007.0 -
26/01:30pm 38.1 37.3 11.2 20 16.1 ENE 6 13 3 7 1008.2 1007.3 -
26/01:00pm 39.2 37.3 10.5 18 17.1 ENE 11 22 6 12 1008.7 1007.8 -
26/12:30pm 37.9 36.4 11.8 21 15.8 E 11 24 6 13 1009.2 1008.3 -
26/12:00pm 37.7 35.6 12.3 22 15.5 E 15 26 8 14 1009.6 1008.7 -
26/11:30am 37.0 35.3 12.4 23 14.9 ENE 13 24 7 13 1009.9 1009.0 0.0
26/11:00am 35.9 34.7 12.8 25 14.1 N 11 22 6 12 1010.1 1009.2 0.0
26/10:30am 35.6 33.3 13.1 25 13.7 NE 17 28 9 15 1010.7 1009.9 0.0
26/10:00am 34.5 32.7 13.3 27 12.9 NE 15 26 8 14 1011.0 1010.2 0.0
26/09:30am 34.3 33.0 13.7 29 12.6 NNE 13 24 7 13 1011.2 1010.4 0.0
26/09:00am 33.8 32.7 14.3 31 12.0 ENE 13 20 7 11 1011.3 1010.5 0.0
26/08:30am 33.1 30.8 14.2 32 11.6 E 19 30 10 16 1011.4 1010.6 0.0
26/08:00am 32.6 30.1 15.1 34 10.9 ESE 22 30 12 16 1011.0 1010.2 0.0
26/07:30am 30.9 27.9 14.9 37 9.8 ESE 24 33 13 18 1011.0 1010.2 0.0
26/07:00am 29.8 27.4 15.5 42 8.9 ESE 22 32 12 17 1010.7 1009.9 0.0
26/06:30am 28.8 25.6 15.3 43 8.3 SE 26 32 14 17 1010.3 1009.5 0.0
26/06:00am 28.7 25.8 15.2 43 8.3 ESE 24 35 13 19 1009.8 1008.9 0.0
26/05:30am 28.9 26.0 15.1 43 8.5 ESE 24 32 13 17 1009.6 1008.7 0.0
26/05:00am 29.4 25.4 15.1 41 8.8 SE 30 41 16 22 1008.9 1008.0 0.0
26/04:30am 29.9 25.5 15.2 41 9.1 SE 32 39 17 21 1008.6 1007.7 0.0
26/04:00am 30.2 25.8 15.1 40 9.3 SE 32 41 17 22 1008.4 1007.5 0.0
26/03:30am 30.5 25.9 15.0 39 9.5 SE 33 43 18 23 1008.1 1007.2 0.0
26/03:00am 30.9 26.4 14.9 37 9.9 SE 32 44 17 24 1007.9 1007.0 0.0
26/02:30am 31.0 26.4 14.6 37 10.1 SE 32 39 17 21 1007.8 1006.9 0.0
26/02:00am 31.3 27.0 14.4 35 10.4 SSE 30 37 16 20 1007.7 1006.8 0.0
26/01:30am 31.8 27.4 14.0 34 10.8 SE 30 43 16 23 1007.7 1006.8 0.0
26/01:00am 32.2 28.5 13.9 33 11.2 SSE 26 35 14 19 1007.9 1007.0 0.0
26/12:30am 32.5 28.4 13.7 32 11.4 SSE 28 35 15 19 1008.1 1007.2 0.0
26/12:00am 33.0 29.0 14.1 32 11.6 SSE 28 37 15 20 1008.3 1007.4 0.0
 
Date/Time
EST
Temp
°C
App
Temp
°C
Dew
Point
Rel
Hum
%
Delta-T
°C
Wind Press
QNH
hPa
Press
MSL
hPa
Rain
since 9 am
mm
Dir
 
Spd
km/h
Gust
km/h
Spd
kts
Gust
kts
25/11:30pm 32.5 29.1 13.7 32 11.4 S 24 32 13 17 1008.5 1007.6 0.0
25/11:00pm 32.3 29.6 13.5 32 11.4 SSE 20 26 11 14 1008.7 1007.8 0.0
25/10:30pm 33.1 30.3 13.2 30 12.0 SSE 20 24 11 13 1008.7 1007.8 0.0
25/10:00pm 34.1 30.3 13.5 28 12.6 SSE 26 35 14 19 1008.5 1007.6 0.0
25/09:30pm 34.6 30.6 12.9 27 13.1 SSE 26 33 14 18 1008.1 1007.2 0.0
25/09:00pm 35.2 32.3 12.2 25 13.8 SSE 19 26 10 14 1007.9 1007.0 0.0
25/08:30pm 35.0 31.8 13.2 27 13.3 SSW 22 28 12 15 1007.5 1006.6 0.0
25/08:00pm 35.7 32.5 13.2 26 13.8 SSW 22 32 12 17 1007.4 1006.5 0.0
25/07:30pm 35.9 35.0 9.4 20 15.3 E 4 6 2 3 1006.8 1005.9 0.0
25/07:00pm 37.1 35.0 9.6 19 16.1 E 11 15 6 8 1006.6 1005.7 0.0
25/06:30pm 38.1 36.0 9.6 18 16.7 ESE 11 17 6 9 1006.1 1005.2 0.0
25/06:00pm 38.5 36.5 10.0 18 16.8 ENE 11 17 6 9 1005.6 1004.7 0.0
25/05:30pm 39.0 35.7 9.5 17 17.3 ESE 17 30 9 16 1005.3 1004.5 0.0
25/05:00pm 39.7 37.7 10.1 17 17.6 E 11 19 6 10 1005.1 1004.3 0.0
25/04:30pm 40.7 37.9 10.0 16 18.3 ENE 15 26 8 14 1005.3 1004.5 0.0
25/04:00pm 40.4 37.9 9.7 16 18.2 ENE 13 22 7 12 1005.4 1004.6 0.0
25/03:30pm 39.6 36.1 10.8 18 17.3 NE 20 33 11 18 1006.0 1005.1 0.0
25/03:00pm 39.9 37.8 11.1 18 17.4 NE 13 24 7 13 1006.6 1005.7 0.0
25/02:30pm 40.3 37.7 10.6 17 17.8 ENE 15 26 8 14 1007.1 1006.2 0.0
25/02:00pm 39.3 36.5 11.4 19 16.9 ENE 17 22 9 12 1007.7 1006.8 0.0
25/01:30pm 39.5 36.4 11.6 19 16.9 N 19 26 10 14 1008.0 1007.1 0.0
25/01:00pm 39.5 35.8 11.6 19 16.9 NE 22 30 12 16 1008.4 1007.5 0.0
25/12:30pm 39.2 36.7 13.6 22 15.9 NE 19 33 10 18 1008.9 1008.0 0.0
25/12:00pm 38.2 36.1 15.3 25 14.6 N 20 35 11 19 1009.3 1008.4 0.0
25/11:30am 37.9 36.2 15.7 27 14.2 NNE 19 33 10 18 1009.8 1008.9 0.0
25/11:00am 36.4 35.0 16.5 30 12.8 N 19 30 10 16 1010.3 1009.5 0.0
25/10:30am 35.6 32.6 16.8 32 12.1 N 28 43 15 23 1010.4 1009.6 0.0
25/10:00am 35.0 32.2 17.2 34 11.5 N 28 41 15 22 1010.4 1009.6 0.0
25/09:30am 34.6 31.8 18.2 37 10.7 N 30 41 16 22 1010.6 1009.8 0.0
25/09:00am 33.3 29.3 17.5 39 10.2 N 35 44 19 24 1010.6 1009.8 0.0
25/08:30am 33.0 29.7 18.0 41 9.7 N 32 41 17 22 1010.3 1009.5 0.0
25/08:00am 32.8 30.8 17.4 39 9.9 NNE 24 35 13 19 1010.0 1009.1 0.0
25/07:30am 30.3 31.0 17.0 44 8.4 ENE 9 13 5 7 1010.0 1009.1 0.0
25/07:00am 28.1 28.5 16.4 49 7.3 E 9 13 5 7 1009.4 1008.5 0.0
25/06:30am 26.4 27.3 16.1 53 6.4 ENE 6 7 3 4 1009.1 1008.2 0.0
25/06:00am 25.5 25.7 15.8 55 5.9 ENE 9 13 5 7 1008.9 1008.0 0.0
25/05:30am 25.3 23.6 16.2 57 5.6 NNE 20 37 11 20 1008.3 1007.4 0.0
25/05:00am 24.6 24.3 15.5 57 5.5 SE 11 13 6 7 1007.7 1006.8 0.0
25/04:30am 25.7 25.7 16.3 56 5.8 SSE 11 11 6 6 1007.6 1006.7 0.0
25/04:00am 26.5 26.4 16.1 52 6.4 S 11 13 6 7 1007.6 1006.7 0.0
25/03:30am 27.1 27.2 16.4 52 6.6 SSE 11 13 6 7 1007.7 1006.8 0.0
25/03:00am 27.7 28.8 16.6 50 6.9 S 6 11 3 6 1007.7 1006.8 0.0
25/02:30am 28.5 28.3 16.7 48 7.4 S 13 19 7 10 1007.6 1006.7 0.0
25/02:00am 28.8 27.6 17.0 49 7.5 S 19 24 10 13 1007.5 1006.6 0.0
25/01:30am 28.6 28.6 17.2 50 7.2 S 13 15 7 8 1007.9 1007.0 0.0
25/01:00am 29.3 29.3 17.2 48 7.7 S 13 15 7 8 1008.6 1007.7 0.0
25/12:30am 29.9 29.6 17.4 47 8.0 S 15 19 8 10 1009.1 1008.2 0.0
25/12:00am 30.2 29.6 17.6 46 8.1 S 17 24 9 13 1009.7 1008.8 0.0
 
Date/Time
EST
Temp
°C
App
Temp
°C
Dew
Point
Rel
Hum
%
Delta-T
°C
Wind Press
QNH
hPa
Press
MSL
hPa
Rain
since 9 am
mm
Dir
 
Spd
km/h
Gust
km/h
Spd
kts
Gust
kts
24/11:30pm 30.9 28.6 17.6 45 8.5 SSW 26 33 14 18 1009.5 1008.6 0.0
24/11:00pm 31.1 29.0 18.1 46 8.4 S 26 35 14 19 1009.7 1008.8 0.0
24/10:30pm 31.0 29.6 18.0 45 8.4 SSW 22 30 12 16 1009.6 1008.7 0.0
24/10:00pm 31.6 30.2 17.1 41 9.3 SSW 20 26 11 14 1009.5 1008.6 0.0
24/09:30pm 31.8 31.9 18.4 45 8.7 SSW 15 20 8 11 1009.3 1008.4 0.0
24/09:00pm 32.0 31.3 18.6 45 8.7 WSW 20 28 11 15 1009.2 1008.3 0.0
24/08:30pm 32.6 29.3 18.0 41 9.5 SW 32 37 17 20 1008.8 1007.9 0.0
24/08:00pm 33.7 31.3 17.4 37 10.5 WSW 26 33 14 18 1008.1 1007.2 0.0
24/07:30pm 35.8 34.9 9.3 20 15.3 NE 4 6 2 3 1007.4 1006.5 0.0
24/07:00pm 36.4 36.2 9.1 19 15.8 CALM 0 2 0 1 1007.2 1006.3 0.0
24/06:30pm 37.6 37.4 9.2 18 16.5 CALM 0 0 0 0 1006.9 1006.0 0.0
24/06:00pm 38.3 38.1 9.0 17 17.1 CALM 0 0 0 0 1006.6 1005.7 0.0
24/05:30pm 38.7 37.4 9.3 17 17.2 ENE 6 9 3 5 1006.0 1005.1 0.0
24/05:00pm 39.0 38.5 9.5 17 17.3 E 2 6 1 3 1005.8 1004.9 0.0
24/04:30pm 38.9 37.5 9.4 17 17.3 ENE 7 15 4 8 1005.8 1004.9 0.0
24/04:00pm 39.3 38.0 9.8 17 17.4 ESE 7 17 4 9 1006.1 1005.2 0.0
24/03:30pm 39.8 37.8 10.2 17 17.6 SSE 11 20 6 11 1006.0 1005.1 0.0
24/03:00pm 40.9 39.0 11.9 18 17.8 NNE 13 20 7 11 1006.5 1005.6 0.0
24/02:30pm 40.4 40.3 13.8 20 16.7 SE 7 17 4 9 1007.2 1006.3 0.0
24/02:00pm 38.7 37.7 14.5 24 15.2 N 13 32 7 17 1007.9 1007.0 0.0
24/01:30pm 38.5 37.8 14.3 23 15.2 NNW 11 24 6 13 1008.7 1007.8 0.0
24/01:00pm 38.3 38.4 15.4 25 14.6 N 9 24 5 13 1009.3 1008.4 0.0
24/12:30pm 38.1 38.3 15.8 26 14.2 NNE 9 24 5 13 1010.0 1009.1 0.0
24/12:00pm 37.4 37.3 16.9 30 13.3 N 13 30 7 16 1010.6 1009.8 0.0
24/11:30am 36.7 36.6 17.8 32 12.4 N 15 26 8 14 1011.0 1010.2 0.0
24/11:00am 36.3 35.7 18.4 35 11.8 N 19 32 10 17 1011.2 1010.4 0.0
24/10:30am 36.8 36.0 19.3 36 11.7 N 22 35 12 19 1011.4 1010.6 0.0
24/10:00am 35.2 34.2 19.6 40 10.4 N 24 41 13 22 1011.5 1010.7 0.0
24/09:30am 34.5 32.0 19.7 41 9.9 N 32 43 17 23 1011.6 1010.8 0.0
24/09:00am 33.9 31.0 18.0 39 10.3 N 30 41 16 22 1011.8 1011.0 0.0
24/08:30am 33.1 29.5 17.3 39 10.1 N 32 43 17 23 1011.7 1010.9 0.0
24/08:00am 32.2 28.1 16.5 39 9.9 N 33 43 18 23 1011.5 1010.7 0.0
24/07:30am 31.5 28.2 17.0 41 9.2 N 30 41 16 22 1011.5 1010.7 0.0
24/07:00am 29.9 27.8 18.0 48 7.6 NNE 26 41 14 22 1010.9 1010.1 0.0
24/06:30am 29.2 28.5 18.6 52 6.8 NNE 20 28 11 15 1010.5 1009.7 0.0
24/06:00am 28.3 28.2 18.7 56 6.2 NNE 17 20 9 11 1010.1 1009.2 0.0
24/05:30am 28.0 28.6 18.7 57 6.0 NNE 13 19 7 10 1009.9 1009.0 0.0
24/05:00am 28.2 28.7 19.2 58 5.9 NNE 15 19 8 10 1009.5 1008.6 0.0
24/04:30am 27.9 28.9 18.6 57 6.0 NNE 11 13 6 7 1009.1 1008.2 0.0
24/04:00am 28.0 29.1 18.1 55 6.3 NNE 9 13 5 7 1009.1 1008.2 0.0
24/03:30am 27.6 27.7 16.6 51 6.9 NNE 11 13 6 7 1008.9 1008.0 0.0
24/03:00am 27.6 27.3 14.3 44 8.0 NE 9 11 5 6 1008.8 1007.9 0.0
24/02:30am 28.1 29.6 14.7 44 8.1 CALM 0 0 0 0 1008.6 1007.7 0.0
24/02:00am 28.9 30.0 13.6 39 9.2 CALM 0 0 0 0 1008.8 1007.9 0.0
24/01:30am 29.1 30.4 14.1 40 9.1 CALM 0 0 0 0 1009.0 1008.1 0.0
24/01:00am 29.2 30.0 12.6 36 9.8 CALM 0 0 0 0 1009.2 1008.3 0.0
24/12:30am 30.3 31.6 14.0 37 9.9 CALM 0 0 0 0 1009.4 1008.5 0.0
24/12:00am 30.8 31.6 13.6 35 10.4 W 2 4 1 2 1009.7 1008.8 0.0
 
Date/Time
EST
Temp
°C
App
Temp
°C
Dew
Point
Rel
Hum
%
Delta-T
°C
Wind Press
QNH
hPa
Press
MSL
hPa
Rain
since 9 am
mm
Dir
 
Spd
km/h
Gust
km/h
Spd
kts
Gust
kts
23/11:30pm 31.4 31.2 13.6 33 10.8 WNW 7 9 4 5 1009.9 1009.0 0.0
23/11:00pm 33.0 32.6 14.1 32 11.6 W 9 15 5 8 1010.1 1009.2 0.0
23/10:30pm 32.5 32.5 14.1 32 11.3 S 7 17 4 9 1010.4 1009.6 0.0
23/10:00pm 32.7 32.7 14.3 32 11.3 ESE 7 11 4 6 1009.7 1008.8 0.0
23/09:30pm 32.7 33.1 14.8 34 11.1 E 6 9 3 5 1009.5 1008.6 0.0
23/09:00pm 33.4 33.8 15.4 34 11.3 ENE 7 13 4 7 1009.5 1008.6 0.0
23/08:30pm 33.7 32.6 15.2 33 11.6 ENE 15 26 8 14 1009.1 1008.2 0.0
23/08:00pm 34.2 29.6 14.7 31 12.1 ENE 32 43 17 23 1009.0 1008.1 0.0
23/07:30pm 36.2 31.8 13.0 24 14.2 SE 28 35 15 19 1008.1 1007.2 0.0
23/07:00pm 36.8 31.6 12.9 24 14.6 SE 32 46 17 25 1007.9 1007.0 0.0
23/06:54pm 37.0 32.7 13.1 24 14.7 SE 28 46 15 25 1007.8 1006.9 0.0
23/06:41pm 38.2 32.9 11.3 20 16.1 ESE 30 41 16 22 1007.7 1006.8 0.0
23/06:30pm 39.3 38.2 10.6 18 17.1 E 7 13 4 7 1007.3 1006.4 0.0
23/06:00pm 39.7 39.9 11.7 19 17.0 E 2 9 1 5 1007.0 1006.1 0.0
23/05:30pm 40.0 38.2 12.0 19 17.1 ENE 13 17 7 9 1006.4 1005.5 0.0
23/05:00pm 40.3 39.0 11.4 18 17.5 ENE 9 17 5 9 1006.4 1005.5 0.0
23/04:30pm 40.6 39.7 12.5 19 17.3 N 9 19 5 10 1006.3 1005.4 0.0

Other Formats:

Comma delimited format used in spreadsheet applications
http://www.bom.gov.au/fwo/IDQ60801/IDQ60801.94337.axf

JavaScript Object Notation format (JSON) in row-major order
http://www.bom.gov.au/fwo/IDQ60801/IDQ60801.94337.json